Map

Track Data

SID SEASON NUMBER BASIN SUBBASIN NAME ISO_TIME NATURE LAT LON WMO_WIND WMO_PRES WMO_AGENCY TRACK_TYPE DIST2LAND LANDFALL IFLAG USA_AGENCY USA_ATCF_ID USA_LAT USA_LON USA_RECORD USA_STATUS USA_WIND USA_PRES USA_SSHS USA_R34_NE USA_R34_SE USA_R34_SW USA_R34_NW USA_R50_NE USA_R50_SE USA_R50_SW USA_R50_NW USA_R64_NE USA_R64_SE USA_R64_SW USA_R64_NW USA_POCI USA_ROCI USA_RMW USA_EYE TOKYO_LAT TOKYO_LON TOKYO_GRADE TOKYO_WIND TOKYO_PRES TOKYO_R50_DIR TOKYO_R50_LONG TOKYO_R50_SHORT TOKYO_R30_DIR TOKYO_R30_LONG TOKYO_R30_SHORT TOKYO_LAND CMA_LAT CMA_LON CMA_CAT CMA_WIND CMA_PRES HKO_LAT HKO_LON HKO_CAT HKO_WIND HKO_PRES NEWDELHI_LAT NEWDELHI_LON NEWDELHI_GRADE NEWDELHI_WIND NEWDELHI_PRES NEWDELHI_CI NEWDELHI_DP NEWDELHI_POCI REUNION_LAT REUNION_LON REUNION_TYPE REUNION_WIND REUNION_PRES REUNION_TNUM REUNION_CI REUNION_RMW REUNION_R34_NE REUNION_R34_SE REUNION_R34_SW REUNION_R34_NW REUNION_R50_NE REUNION_R50_SE REUNION_R50_SW REUNION_R50_NW REUNION_R64_NE REUNION_R64_SE REUNION_R64_SW REUNION_R64_NW BOM_LAT BOM_LON BOM_TYPE BOM_WIND BOM_PRES BOM_TNUM BOM_CI BOM_RMW BOM_R34_NE BOM_R34_SE BOM_R34_SW BOM_R34_NW BOM_R50_NE BOM_R50_SE BOM_R50_SW BOM_R50_NW BOM_R64_NE BOM_R64_SE BOM_R64_SW BOM_R64_NW BOM_ROCI BOM_POCI BOM_EYE BOM_POS_METHOD BOM_PRES_METHOD NADI_LAT NADI_LON NADI_CAT NADI_WIND NADI_PRES WELLINGTON_LAT WELLINGTON_LON WELLINGTON_WIND WELLINGTON_PRES DS824_LAT DS824_LON DS824_STAGE DS824_WIND DS824_PRES TD9636_LAT TD9636_LON TD9636_STAGE TD9636_WIND TD9636_PRES TD9635_LAT TD9635_LON TD9635_WIND TD9635_PRES TD9635_ROCI NEUMANN_LAT NEUMANN_LON NEUMANN_CLASS NEUMANN_WIND NEUMANN_PRES MLC_LAT MLC_LON MLC_CLASS MLC_WIND MLC_PRES USA_GUST BOM_GUST BOM_GUST_PER REUNION_GUST REUNION_GUST_PER USA_SEAHGT USA_SEARAD_NE USA_SEARAD_SE USA_SEARAD_SW USA_SEARAD_NW STORM_SPEED STORM_DIR
1975311N11089 1975 128 NI BB NOT_NAMED 1975-11-07 00:00:00 TS 11.4000 89.0000 main 762 762 O________OO___ jtwc_io IO191975 11.4000 89.0000 -1 11.4000 89.0000 TC 11.4000 89.0000 1 9 289
1975311N11089 1975 128 NI BB NOT_NAMED 1975-11-07 03:00:00 TS 11.5485 88.5673 main 787 787 P________PP___ IO191975 11.5526 88.5651 -1 11.5526 88.5651 TC 11.5402 88.5717 1 9 289
1975311N11089 1975 128 NI BB NOT_NAMED 1975-11-07 06:00:00 TS 11.6947 88.1049 main 815 778 O________OP___ jtwc_io IO191975 11.7000 88.1000 -1 11.7000 88.1000 TC 11.6842 88.1146 1 10 287
1975311N11089 1975 128 NI BB NOT_NAMED 1975-11-07 09:00:00 TS 11.8403 87.5867 main 778 722 P________PP___ IO191975 11.8424 87.5799 -1 11.8424 87.5799 TC 11.8362 87.6003 1 11 286
1975311N11089 1975 128 NI BB NOT_NAMED 1975-11-07 12:00:00 TS 12.0000 87.0000 main 722 661 O________OO___ jtwc_io IO191975 12.0000 87.0000 -1 12.0000 87.0000 TC 12.0000 87.0000 1 13 286
1975311N11089 1975 128 NI BB NOT_NAMED 1975-11-07 15:00:00 TS 12.1789 86.3446 main 654 594 P________PP___ IO191975 12.1774 86.3649 -1 12.1774 86.3649 TC 12.1818 86.3042 1 14 287
1975311N11089 1975 128 NI BB NOT_NAMED 1975-11-07 18:00:00 TS 12.3989 85.6602 main 594 515 O________OP___ jtwc_io IO191975 12.4000 85.7000 XX 35 -5 12.4000 85.7000 TC 35 12.3967 85.5807 1 14 290
1975311N11089 1975 128 NI BB NOT_NAMED 1975-11-07 21:00:00 TS 12.6578 84.9656 main 513 445 P________PP___ IO191975 12.6552 84.9901 XX 35 -5 12.6552 84.9901 TC 35 12.6631 84.9168 1 14 296
1975311N11089 1975 128 NI BB NOT_NAMED 1975-11-08 00:00:00 TS 13.0000 84.4000 main 445 407 O________OO___ jtwc_io IO191975 13.0000 84.4000 XX 35 -5 13.0000 84.4000 TC 35 13.0000 84.4000 2 12 313
1975311N11089 1975 128 NI BB NOT_NAMED 1975-11-08 03:00:00 TS 13.4718 84.0610 main 397 337 P________PP___ IO191975 13.4698 84.0450 XX 35 -5 13.4698 84.0450 TC 35 13.4758 84.0930 2 11 335
1975311N11089 1975 128 NI BB NOT_NAMED 1975-11-08 06:00:00 TS 14.0046 83.9149 main 337 290 O________OP___ jtwc_io IO191975 14.0000 83.9000 XX 35 -5 14.0000 83.9000 TC 35 14.0137 83.9447 2 11 352
1975311N11089 1975 128 NI BB NOT_NAMED 1975-11-08 09:00:00 TS 14.5449 83.8962 main 290 255 P________PP___ IO191975 14.5449 83.8823 XX 35 -5 14.5449 83.8823 TC 35 14.5449 83.9242 2 10 5
1975311N11089 1975 128 NI BB NOT_NAMED 1975-11-08 12:00:00 TS 15.0000 84.0000 main 255 241 O________OO___ jtwc_io IO191975 15.0000 84.0000 XX 35 -5 15.0000 84.0000 TC 35 15.0000 84.0000 2 8 19
1975311N11089 1975 128 NI BB NOT_NAMED 1975-11-08 15:00:00 TS 15.2615 84.1548 main 249 249 P________PP___ IO191975 15.2450 84.1775 XX 37 -5 15.2450 84.1775 TC 37 15.2944 84.1093 2 6 39
1975311N11089 1975 128 NI BB NOT_NAMED 1975-11-08 18:00:00 TS 15.4350 84.3673 main 261 256 O________OP___ jtwc_io IO191975 15.4000 84.4000 XX 40 -5 15.4000 84.4000 TC 40 15.5050 84.3021 2 5 48
1975311N11089 1975 128 NI BB NOT_NAMED 1975-11-08 21:00:00 TS 15.6260 84.5763 main 269 257 P________PP___ IO191975 15.6075 84.5925 XX 40 -5 15.6075 84.5925 TC 40 15.6632 84.5439 2 6 49
1975311N11089 1975 128 NI BB NOT_NAMED 1975-11-09 00:00:00 TS 15.8000 84.8000 main 263 262 O________OO___ jtwc_io IO191975 15.8000 84.8000 XX 40 -5 15.8000 84.8000 TC 40 15.8000 84.8000 2 6 53
1975311N11089 1975 128 NI BB NOT_NAMED 1975-11-09 03:00:00 TS 15.9639 85.0420 main 262 262 P________PP___ IO191975 15.9575 85.0500 XX 40 -5 15.9575 85.0500 TC 40 15.9766 85.0259 2 6 56
1975311N11089 1975 128 NI BB NOT_NAMED 1975-11-09 06:00:00 TS 16.1125 85.2858 main 277 267 O________OP___ jtwc_io IO191975 16.1000 85.3000 XX 40 -5 16.1000 85.3000 TC 40 16.1375 85.2575 2 5 55
1975311N11089 1975 128 NI BB NOT_NAMED 1975-11-09 09:00:00 TS 16.2699 85.5051 main 268 265 P________PP___ IO191975 16.2650 85.5150 XX 42 -5 16.2650 85.5150 TC 42 16.2797 85.4853 2 5 54
1975311N11089 1975 128 NI BB NOT_NAMED 1975-11-09 12:00:00 TS 16.4000 85.7000 main 272 272 O________OO___ jtwc_io IO191975 16.4000 85.7000 XX 45 -5 16.4000 85.7000 TC 45 16.4000 85.7000 2 4 62
1975311N11089 1975 128 NI BB NOT_NAMED 1975-11-09 15:00:00 TS 16.4433 85.8514 main 285 277 P________PP___ IO191975 16.4575 85.8501 XX 45 -5 16.4575 85.8501 TC 45 16.4149 85.8541 2 3 76
1975311N11089 1975 128 NI BB NOT_NAMED 1975-11-09 18:00:00 TS 16.4740 85.9999 main 285 285 O________OP___ jtwc_io IO191975 16.5000 86.0000 XX 45 -5 16.5000 86.0000 TC 45 16.4219 85.9996 2 3 77
1975311N11089 1975 128 NI BB NOT_NAMED 1975-11-09 21:00:00 TS 16.5143 86.1653 main 300 292 P________PP___ IO191975 16.5249 86.1629 XX 47 -5 16.5249 86.1629 TC 47 16.4930 86.1702 2 4 60
1975311N11089 1975 128 NI BB NOT_NAMED 1975-11-10 00:00:00 TS 16.7000 86.4000 main 300 292 O________OO___ jtwc_io IO191975 16.7000 86.4000 XX 50 -5 16.7000 86.4000 TC 50 16.7000 86.4000 1 9 41
1975311N11089 1975 128 NI BB NOT_NAMED 1975-11-10 03:00:00 TS 17.1769 86.7630 main 293 260 P________PP___ IO191975 17.1751 86.7698 XX 50 -5 17.1751 86.7698 TC 50 17.1805 86.7495 1 13 34
1975311N11089 1975 128 NI BB NOT_NAMED 1975-11-10 06:00:00 TS 17.7969 87.1865 main 260 218 O________OP___ jtwc_io IO191975 17.8000 87.2000 XX 50 -5 17.8000 87.2000 TC 50 17.7907 87.1595 1 15 32
1975311N11089 1975 128 NI BB NOT_NAMED 1975-11-10 09:00:00 TS 18.4402 87.6065 main 218 198 P________PP___ IO191975 18.4450 87.6147 XX 47 -5 18.4450 87.6147 TC 47 18.4306 87.5901 1 14 33
1975311N11089 1975 128 NI BB NOT_NAMED 1975-11-10 12:00:00 TS 19.0000 88.0000 main 199 191 O________OO___ jtwc_io IO191975 19.0000 88.0000 XX 45 -5 19.0000 88.0000 TC 45 19.0000 88.0000 1 11 38
1975311N11089 1975 128 NI BB NOT_NAMED 1975-11-10 15:00:00 TS 19.3127 88.3178 main 201 201 P________PP___ IO191975 19.2949 88.3155 XX 45 -5 19.2949 88.3155 TC 45 19.3485 88.3223 1 8 47
1975311N11089 1975 128 NI BB NOT_NAMED 1975-11-10 18:00:00 TS 19.5389 88.6057 main 214 201 O________OP___ jtwc_io IO191975 19.5000 88.6000 XX 45 -5 19.5000 88.6000 TC 45 19.6167 88.6172 1 7 48
1975311N11089 1975 128 NI BB NOT_NAMED 1975-11-10 21:00:00 TS 19.8072 88.8962 main 201 168 P________PP___ IO191975 19.7849 88.8927 XX 42 -5 19.7849 88.8927 TC 42 19.8516 88.9034 1 8 45
1975311N11089 1975 128 NI BB NOT_NAMED 1975-11-11 00:00:00 TS 20.1000 89.2000 main 168 140 O________OO___ jtwc_io IO191975 20.1000 89.2000 XX 40 -5 20.1000 89.2000 TC 40 20.1000 89.2000 1 9 44
1975311N11089 1975 128 NI BB NOT_NAMED 1975-11-11 03:00:00 TS 20.4350 89.5390 main 140 112 P________PP___ IO191975 20.4425 89.5426 XX 40 -5 20.4425 89.5426 TC 40 20.4202 89.5319 1 9 43
1975311N11089 1975 128 NI BB NOT_NAMED 1975-11-11 06:00:00 TS 20.7874 89.8927 main 112 78 O________OP___ jtwc_io IO191975 20.8000 89.9000 XX 40 -5 20.8000 89.9000 TC 40 20.7623 89.8781 1 10 43
1975311N11089 1975 128 NI BB NOT_NAMED 1975-11-11 09:00:00 TS 21.1360 90.2452 main 78 53 P________PP___ IO191975 21.1424 90.2502 XX 37 -5 21.1424 90.2502 TC 37 21.1233 90.2352 1 10 43
1975311N11089 1975 128 NI BB NOT_NAMED 1975-11-11 12:00:00 TS 21.5000 90.6000 main 53 30 O________OO___ jtwc_io IO191975 21.5000 90.6000 XX 35 -5 21.5000 90.6000 TC 35 21.5000 90.6000 1 10 41
1975311N11089 1975 128 NI BB NOT_NAMED 1975-11-11 15:00:00 TS 21.8914 90.9517 main 38 30 P________PP___ IO191975 21.8924 90.9427 XX 35 -5 21.8924 90.9427 TC 35 21.8894 90.9696 1 10 40
1975311N11089 1975 128 NI BB NOT_NAMED 1975-11-11 18:00:00 TS 22.2960 91.3144 main 44 0 O________OP___ jtwc_io IO191975 22.3000 91.3000 XX 35 -5 22.3000 91.3000 TC 35 22.2881 91.3432 1 11 41
1975311N11089 1975 128 NI BB NOT_NAMED 1975-11-11 21:00:00 TS 22.6994 91.6997 main 0 0 P________PP___ IO191975 22.7027 91.6895 XX 32 -5 22.7027 91.6895 TC 32 22.6928 91.7202 1 11 42
1975311N11089 1975 128 NI BB NOT_NAMED 1975-11-12 00:00:00 TS 23.1000 92.1000 main 0 O________OO___ jtwc_io IO191975 23.1000 92.1000 XX 30 -5 23.1000 92.1000 TC 30 23.1000 92.1000 6 11 43

About IBTrACS Database

This database is a web-friendly format of International Best Track Archive for Climate Stewardship (IBTrACS), a global best track data archive curated by NOAA dating back to 1842.

Updated: 2021-12-06